sensor_id;sensor_type;location;lat;lon;timestamp;pressure;altitude;pressure_sealevel;temperature;humidity
21706;BME280;11014;53.076;18.208;2023-01-19T00:01:43;99949.78;;;6.17;64.46
21706;BME280;11014;53.076;18.208;2023-01-19T00:04:12;99962.00;;;6.24;64.34
21706;BME280;11014;53.076;18.208;2023-01-19T00:06:40;99957.88;;;6.28;64.34
21706;BME280;11014;53.076;18.208;2023-01-19T00:09:09;99956.00;;;6.29;64.26
21706;BME280;11014;53.076;18.208;2023-01-19T00:11:38;99956.63;;;6.31;64.32
21706;BME280;11014;53.076;18.208;2023-01-19T00:14:06;99956.16;;;6.34;63.94
21706;BME280;11014;53.076;18.208;2023-01-19T00:16:35;99961.06;;;6.37;64.02
21706;BME280;11014;53.076;18.208;2023-01-19T00:19:03;99959.44;;;6.36;64.07
21706;BME280;11014;53.076;18.208;2023-01-19T00:21:32;99957.22;;;6.33;64.18
21706;BME280;11014;53.076;18.208;2023-01-19T00:24:00;99968.47;;;6.35;64.33
21706;BME280;11014;53.076;18.208;2023-01-19T00:26:29;99972.16;;;6.34;64.26
21706;BME280;11014;53.076;18.208;2023-01-19T00:28:57;99973.81;;;6.35;64.26
21706;BME280;11014;53.076;18.208;2023-01-19T00:31:26;99982.06;;;6.33;64.36
21706;BME280;11014;53.076;18.208;2023-01-19T00:34:02;99984.09;;;6.31;64.21
21706;BME280;11014;53.076;18.208;2023-01-19T00:36:32;99990.69;;;6.29;64.25
21706;BME280;11014;53.076;18.208;2023-01-19T00:39:01;99985.75;;;6.32;64.42
21706;BME280;11014;53.076;18.208;2023-01-19T00:41:30;99985.69;;;6.39;64.48
21706;BME280;11014;53.076;18.208;2023-01-19T00:44:16;99991.78;;;6.46;64.24
21706;BME280;11014;53.076;18.208;2023-01-19T00:46:45;99993.78;;;6.50;63.91
21706;BME280;11014;53.076;18.208;2023-01-19T00:49:13;99996.25;;;6.52;63.82
21706;BME280;11014;53.076;18.208;2023-01-19T00:51:42;99999.94;;;6.51;63.82
21706;BME280;11014;53.076;18.208;2023-01-19T00:54:10;100006.91;;;6.52;63.90
21706;BME280;11014;53.076;18.208;2023-01-19T00:56:40;100012.25;;;6.52;63.85
21706;BME280;11014;53.076;18.208;2023-01-19T00:59:09;100005.53;;;6.43;63.94
21706;BME280;11014;53.076;18.208;2023-01-19T01:01:38;100011.53;;;6.38;64.30
21706;BME280;11014;53.076;18.208;2023-01-19T01:04:13;100012.13;;;6.40;64.22
21706;BME280;11014;53.076;18.208;2023-01-19T01:06:41;100007.19;;;6.44;64.21
21706;BME280;11014;53.076;18.208;2023-01-19T01:09:10;100005.69;;;6.48;64.25
21706;BME280;11014;53.076;18.208;2023-01-19T01:11:41;100013.88;;;6.53;64.19
21706;BME280;11014;53.076;18.208;2023-01-19T01:14:11;100008.91;;;6.56;63.93
21706;BME280;11014;53.076;18.208;2023-01-19T01:16:40;100019.97;;;6.60;64.09
21706;BME280;11014;53.076;18.208;2023-01-19T01:19:09;100016.28;;;6.61;63.99
21706;BME280;11014;53.076;18.208;2023-01-19T01:21:38;100016.28;;;6.61;63.58
21706;BME280;11014;53.076;18.208;2023-01-19T01:24:31;100017.22;;;6.67;63.95
21706;BME280;11014;53.076;18.208;2023-01-19T01:27:00;100021.97;;;6.65;63.51
21706;BME280;11014;53.076;18.208;2023-01-19T01:29:28;100028.13;;;6.65;63.46
21706;BME280;11014;53.076;18.208;2023-01-19T01:31:57;100022.56;;;6.67;63.41
21706;BME280;11014;53.076;18.208;2023-01-19T01:34:26;100027.69;;;6.68;63.56
21706;BME280;11014;53.076;18.208;2023-01-19T01:36:54;100030.97;;;6.70;63.40
21706;BME280;11014;53.076;18.208;2023-01-19T01:39:23;100037.94;;;6.71;63.51
21706;BME280;11014;53.076;18.208;2023-01-19T01:41:52;100038.75;;;6.72;63.48
21706;BME280;11014;53.076;18.208;2023-01-19T01:44:51;100046.34;;;6.75;63.58
21706;BME280;11014;53.076;18.208;2023-01-19T01:47:44;100053.88;;;6.78;63.53
21706;BME280;11014;53.076;18.208;2023-01-19T01:50:20;100057.81;;;6.75;63.40
21706;BME280;11014;53.076;18.208;2023-01-19T01:52:58;100068.47;;;6.75;63.29
21706;BME280;11014;53.076;18.208;2023-01-19T01:55:45;100074.03;;;6.74;63.39
21706;BME280;11014;53.076;18.208;2023-01-19T01:58:16;100079.44;;;6.67;63.61
21706;BME280;11014;53.076;18.208;2023-01-19T02:00:45;100079.50;;;6.61;63.53
21706;BME280;11014;53.076;18.208;2023-01-19T02:03:32;100086.72;;;6.53;63.73
21706;BME280;11014;53.076;18.208;2023-01-19T02:06:03;100086.00;;;6.40;64.25
21706;BME280;11014;53.076;18.208;2023-01-19T02:08:38;100089.34;;;6.35;64.54
21706;BME280;11014;53.076;18.208;2023-01-19T02:11:28;100088.25;;;6.43;64.52
21706;BME280;11014;53.076;18.208;2023-01-19T02:14:17;100095.97;;;6.51;64.19
21706;BME280;11014;53.076;18.208;2023-01-19T02:16:46;100088.13;;;6.56;64.30
21706;BME280;11014;53.076;18.208;2023-01-19T02:19:19;100081.13;;;6.62;64.24
21706;BME280;11014;53.076;18.208;2023-01-19T02:22:19;100081.66;;;6.70;64.02
21706;BME280;11014;53.076;18.208;2023-01-19T02:24:51;100072.69;;;6.65;63.80
21706;BME280;11014;53.076;18.208;2023-01-19T02:27:20;100081.94;;;6.62;63.75
21706;BME280;11014;53.076;18.208;2023-01-19T02:29:49;100088.91;;;6.63;63.83
21706;BME280;11014;53.076;18.208;2023-01-19T02:32:18;100086.84;;;6.65;63.75
21706;BME280;11014;53.076;18.208;2023-01-19T02:34:46;100075.34;;;6.65;63.86
21706;BME280;11014;53.076;18.208;2023-01-19T02:37:15;100093.47;;;6.56;64.20
21706;BME280;11014;53.076;18.208;2023-01-19T02:39:49;100085.91;;;6.53;64.41
21706;BME280;11014;53.076;18.208;2023-01-19T02:44:59;100077.38;;;6.44;64.46
21706;BME280;11014;53.076;18.208;2023-01-19T02:47:43;100083.22;;;6.53;64.62
21706;BME280;11014;53.076;18.208;2023-01-19T02:56:21;100093.28;;;6.57;64.76
21706;BME280;11014;53.076;18.208;2023-01-19T03:02:25;100102.03;;;6.65;64.18
21706;BME280;11014;53.076;18.208;2023-01-19T03:05:20;100095.28;;;6.62;64.25
21706;BME280;11014;53.076;18.208;2023-01-19T03:14:46;100097.88;;;6.44;64.42
21706;BME280;11014;53.076;18.208;2023-01-19T03:17:16;100098.16;;;6.36;64.71
21706;BME280;11014;53.076;18.208;2023-01-19T03:19:48;100098.59;;;6.33;64.92
21706;BME280;11014;53.076;18.208;2023-01-19T03:22:28;100096.94;;;6.32;65.10
21706;BME280;11014;53.076;18.208;2023-01-19T03:24:58;100097.75;;;6.32;65.07
21706;BME280;11014;53.076;18.208;2023-01-19T03:27:31;100092.59;;;6.37;65.11
21706;BME280;11014;53.076;18.208;2023-01-19T03:30:06;100096.84;;;6.45;65.20
21706;BME280;11014;53.076;18.208;2023-01-19T03:32:41;100100.13;;;6.47;64.81
21706;BME280;11014;53.076;18.208;2023-01-19T03:35:13;100101.38;;;6.44;64.87
21706;BME280;11014;53.076;18.208;2023-01-19T03:37:44;100107.50;;;6.45;64.92
21706;BME280;11014;53.076;18.208;2023-01-19T03:40:13;100105.91;;;6.44;64.62
21706;BME280;11014;53.076;18.208;2023-01-19T03:42:43;100105.06;;;6.43;65.00
21706;BME280;11014;53.076;18.208;2023-01-19T03:45:13;100107.97;;;6.42;64.94
21706;BME280;11014;53.076;18.208;2023-01-19T03:47:42;100110.63;;;6.42;64.69
21706;BME280;11014;53.076;18.208;2023-01-19T03:50:16;100116.75;;;6.42;64.81
21706;BME280;11014;53.076;18.208;2023-01-19T03:53:05;100108.75;;;6.42;64.96
21706;BME280;11014;53.076;18.208;2023-01-19T03:55:35;100113.94;;;6.37;64.97
21706;BME280;11014;53.076;18.208;2023-01-19T03:58:04;100116.19;;;6.34;64.77
21706;BME280;11014;53.076;18.208;2023-01-19T04:00:33;100122.75;;;6.38;64.84
21706;BME280;11014;53.076;18.208;2023-01-19T04:03:04;100113.72;;;6.39;64.99
21706;BME280;11014;53.076;18.208;2023-01-19T04:05:33;100122.31;;;6.41;64.93
21706;BME280;11014;53.076;18.208;2023-01-19T04:08:01;100120.25;;;6.43;64.76
21706;BME280;11014;53.076;18.208;2023-01-19T04:10:30;100133.41;;;6.44;64.68
21706;BME280;11014;53.076;18.208;2023-01-19T04:13:00;100123.50;;;6.45;64.89
21706;BME280;11014;53.076;18.208;2023-01-19T04:15:30;100118.81;;;6.47;64.76
21706;BME280;11014;53.076;18.208;2023-01-19T04:17:59;100116.56;;;6.44;64.91
21706;BME280;11014;53.076;18.208;2023-01-19T04:20:28;100116.13;;;6.47;64.87
21706;BME280;11014;53.076;18.208;2023-01-19T04:23:00;100109.53;;;6.49;64.48
21706;BME280;11014;53.076;18.208;2023-01-19T04:25:29;100113.25;;;6.48;64.25
21706;BME280;11014;53.076;18.208;2023-01-19T04:27:57;100121.47;;;6.47;64.24
21706;BME280;11014;53.076;18.208;2023-01-19T04:30:26;100119.81;;;6.46;64.32
21706;BME280;11014;53.076;18.208;2023-01-19T04:32:56;100114.91;;;6.43;64.36
21706;BME280;11014;53.076;18.208;2023-01-19T04:35:26;100119.84;;;6.39;64.31
21706;BME280;11014;53.076;18.208;2023-01-19T04:37:57;100113.00;;;6.25;64.09
21706;BME280;11014;53.076;18.208;2023-01-19T04:40:29;100104.69;;;6.09;64.10
21706;BME280;11014;53.076;18.208;2023-01-19T04:42:59;100106.19;;;5.91;64.38
21706;BME280;11014;53.076;18.208;2023-01-19T04:45:29;100116.06;;;5.78;64.43
21706;BME280;11014;53.076;18.208;2023-01-19T04:47:57;100131.28;;;5.64;64.54
21706;BME280;11014;53.076;18.208;2023-01-19T04:50:26;100131.34;;;5.51;64.72
21706;BME280;11014;53.076;18.208;2023-01-19T04:52:59;100132.38;;;5.44;64.90
21706;BME280;11014;53.076;18.208;2023-01-19T04:55:28;100129.72;;;5.44;64.84
21706;BME280;11014;53.076;18.208;2023-01-19T04:57:58;100136.66;;;5.45;64.92
21706;BME280;11014;53.076;18.208;2023-01-19T05:00:31;100135.44;;;5.47;64.85
21706;BME280;11014;53.076;18.208;2023-01-19T05:03:02;100135.03;;;5.50;64.53
21706;BME280;11014;53.076;18.208;2023-01-19T05:05:33;100139.53;;;5.50;64.38
21706;BME280;11014;53.076;18.208;2023-01-19T05:08:03;100147.72;;;5.48;64.45
21706;BME280;11014;53.076;18.208;2023-01-19T05:10:41;100147.50;;;5.50;64.60
21706;BME280;11014;53.076;18.208;2023-01-19T05:13:09;100137.09;;;5.48;64.27
21706;BME280;11014;53.076;18.208;2023-01-19T05:15:38;100140.75;;;5.47;64.48
21706;BME280;11014;53.076;18.208;2023-01-19T05:18:06;100146.09;;;5.47;64.34
21706;BME280;11014;53.076;18.208;2023-01-19T05:20:35;100144.03;;;5.56;64.50
21706;BME280;11014;53.076;18.208;2023-01-19T05:23:04;100148.94;;;5.65;64.62
21706;BME280;11014;53.076;18.208;2023-01-19T05:25:34;100155.03;;;5.66;64.52
21706;BME280;11014;53.076;18.208;2023-01-19T05:28:05;100151.78;;;5.64;64.63
21706;BME280;11014;53.076;18.208;2023-01-19T05:30:37;100149.72;;;5.72;64.27
21706;BME280;11014;53.076;18.208;2023-01-19T05:33:05;100152.56;;;5.77;64.17
21706;BME280;11014;53.076;18.208;2023-01-19T05:35:35;100156.03;;;5.78;64.17
21706;BME280;11014;53.076;18.208;2023-01-19T05:38:03;100157.06;;;5.77;64.25
21706;BME280;11014;53.076;18.208;2023-01-19T05:40:32;100157.47;;;5.80;64.62
21706;BME280;11014;53.076;18.208;2023-01-19T05:43:01;100162.59;;;5.88;64.46
21706;BME280;11014;53.076;18.208;2023-01-19T05:45:32;100167.09;;;5.94;64.11
21706;BME280;11014;53.076;18.208;2023-01-19T05:48:08;100162.53;;;6.02;64.21
21706;BME280;11014;53.076;18.208;2023-01-19T05:50:37;100162.72;;;6.07;64.03
21706;BME280;11014;53.076;18.208;2023-01-19T05:53:05;100171.34;;;6.09;64.16
21706;BME280;11014;53.076;18.208;2023-01-19T05:55:34;100178.28;;;6.10;63.98
21706;BME280;11014;53.076;18.208;2023-01-19T05:58:02;100171.13;;;6.10;63.97
21706;BME280;11014;53.076;18.208;2023-01-19T06:00:31;100183.19;;;6.13;64.27
21706;BME280;11014;53.076;18.208;2023-01-19T06:02:59;100182.34;;;6.19;64.31
21706;BME280;11014;53.076;18.208;2023-01-19T06:05:30;100186.84;;;6.25;64.01
21706;BME280;11014;53.076;18.208;2023-01-19T06:07:59;100186.44;;;6.28;64.12
21706;BME280;11014;53.076;18.208;2023-01-19T06:10:27;100187.19;;;6.35;64.22
21706;BME280;11014;53.076;18.208;2023-01-19T06:12:56;100202.78;;;6.38;64.06
21706;BME280;11014;53.076;18.208;2023-01-19T06:15:25;100199.47;;;6.42;64.05
21706;BME280;11014;53.076;18.208;2023-01-19T06:17:53;100213.19;;;6.46;63.67
21706;BME280;11014;53.076;18.208;2023-01-19T06:20:22;100222.22;;;6.45;64.00
21706;BME280;11014;53.076;18.208;2023-01-19T06:22:51;100218.75;;;6.44;64.01
21706;BME280;11014;53.076;18.208;2023-01-19T06:25:23;100223.88;;;6.46;63.85
21706;BME280;11014;53.076;18.208;2023-01-19T06:27:54;100233.53;;;6.47;63.93
21706;BME280;11014;53.076;18.208;2023-01-19T06:30:24;100233.53;;;6.47;63.78
21706;BME280;11014;53.076;18.208;2023-01-19T06:32:56;100242.13;;;6.49;63.79
21706;BME280;11014;53.076;18.208;2023-01-19T06:35:31;100256.06;;;6.51;63.95
21706;BME280;11014;53.076;18.208;2023-01-19T06:38:00;100249.09;;;6.50;63.78
21706;BME280;11014;53.076;18.208;2023-01-19T06:40:54;100271.66;;;6.54;63.87
21706;BME280;11014;53.076;18.208;2023-01-19T06:43:33;100275.75;;;6.56;63.96
21706;BME280;11014;53.076;18.208;2023-01-19T06:46:04;100280.06;;;6.57;63.87
21706;BME280;11014;53.076;18.208;2023-01-19T06:48:42;100284.56;;;6.57;64.01
21706;BME280;11014;53.076;18.208;2023-01-19T06:51:22;100288.47;;;6.61;64.13
21706;BME280;11014;53.076;18.208;2023-01-19T06:53:51;100298.94;;;6.56;63.93
21706;BME280;11014;53.076;18.208;2023-01-19T06:56:22;100305.75;;;6.52;64.27
21706;BME280;11014;53.076;18.208;2023-01-19T06:58:51;100308.19;;;6.53;64.30
21706;BME280;11014;53.076;18.208;2023-01-19T07:01:22;100308.16;;;6.60;64.47
21706;BME280;11014;53.076;18.208;2023-01-19T07:03:58;100304.47;;;6.61;64.25
21706;BME280;11014;53.076;18.208;2023-01-19T07:06:27;100304.91;;;6.58;64.54
21706;BME280;11014;53.076;18.208;2023-01-19T07:08:56;100302.81;;;6.60;64.48
21706;BME280;11014;53.076;18.208;2023-01-19T07:14:55;100313.50;;;6.60;64.47
21706;BME280;11014;53.076;18.208;2023-01-19T07:17:24;100318.41;;;6.63;64.35
21706;BME280;11014;53.076;18.208;2023-01-19T07:19:52;100327.44;;;6.69;64.62
21706;BME280;11014;53.076;18.208;2023-01-19T07:22:25;100329.44;;;6.73;64.39
21706;BME280;11014;53.076;18.208;2023-01-19T07:24:54;100331.94;;;6.75;64.31
21706;BME280;11014;53.076;18.208;2023-01-19T07:27:24;100329.03;;;6.76;64.31
21706;BME280;11014;53.076;18.208;2023-01-19T07:29:58;100326.97;;;6.78;64.30
21706;BME280;11014;53.076;18.208;2023-01-19T07:32:48;100328.59;;;6.79;64.09
21706;BME280;11014;53.076;18.208;2023-01-19T07:35:25;100326.78;;;6.73;64.31
21706;BME280;11014;53.076;18.208;2023-01-19T07:38:27;100342.97;;;6.78;64.08
21706;BME280;11014;53.076;18.208;2023-01-19T07:41:06;100346.69;;;6.77;64.32
21706;BME280;11014;53.076;18.208;2023-01-19T07:43:37;100356.56;;;6.70;64.13
21706;BME280;11014;53.076;18.208;2023-01-19T07:49:46;100352.94;;;6.51;65.00
21706;BME280;11014;53.076;18.208;2023-01-19T07:52:15;100350.03;;;6.60;64.67
21706;BME280;11014;53.076;18.208;2023-01-19T07:54:43;100360.91;;;6.65;64.64
21706;BME280;11014;53.076;18.208;2023-01-19T07:57:12;100355.78;;;6.63;64.63
21706;BME280;11014;53.076;18.208;2023-01-19T07:59:41;100358.63;;;6.68;64.28
21706;BME280;11014;53.076;18.208;2023-01-19T08:02:10;100366.41;;;6.70;64.46
21706;BME280;11014;53.076;18.208;2023-01-19T08:05:09;100360.66;;;6.73;64.56
21706;BME280;11014;53.076;18.208;2023-01-19T08:07:39;100359.06;;;6.65;64.58
21706;BME280;11014;53.076;18.208;2023-01-19T08:10:13;100348.38;;;6.65;64.64
21706;BME280;11014;53.076;18.208;2023-01-19T08:12:42;100361.47;;;6.73;64.37
21706;BME280;11014;53.076;18.208;2023-01-19T08:15:11;100361.88;;;6.77;64.30
21706;BME280;11014;53.076;18.208;2023-01-19T08:17:40;100361.25;;;6.81;64.38
21706;BME280;11014;53.076;18.208;2023-01-19T08:20:14;100369.84;;;6.83;64.42
21706;BME280;11014;53.076;18.208;2023-01-19T08:22:46;100360.22;;;6.82;64.36
21706;BME280;11014;53.076;18.208;2023-01-19T08:25:16;100363.72;;;6.76;64.26
21706;BME280;11014;53.076;18.208;2023-01-19T08:27:45;100363.13;;;6.74;64.19
21706;BME280;11014;53.076;18.208;2023-01-19T08:30:20;100370.97;;;6.69;64.39
21706;BME280;11014;53.076;18.208;2023-01-19T08:33:02;100372.16;;;6.67;64.48
21706;BME280;11014;53.076;18.208;2023-01-19T08:35:34;100376.28;;;6.69;64.75
21706;BME280;11014;53.076;18.208;2023-01-19T08:38:05;100378.31;;;6.74;64.44
21706;BME280;11014;53.076;18.208;2023-01-19T08:40:50;100382.44;;;6.70;64.64
21706;BME280;11014;53.076;18.208;2023-01-19T08:43:56;100380.41;;;6.65;64.42
21706;BME280;11014;53.076;18.208;2023-01-19T08:47:34;100393.75;;;6.65;64.60
21706;BME280;11014;53.076;18.208;2023-01-19T08:50:03;100387.22;;;6.61;64.65
21706;BME280;11014;53.076;18.208;2023-01-19T08:52:41;100381.41;;;6.64;64.75
21706;BME280;11014;53.076;18.208;2023-01-19T08:55:10;100388.41;;;6.65;64.87
21706;BME280;11014;53.076;18.208;2023-01-19T08:57:38;100384.06;;;6.71;64.82
21706;BME280;11014;53.076;18.208;2023-01-19T09:00:34;100382.00;;;6.79;64.96
21706;BME280;11014;53.076;18.208;2023-01-19T09:06:23;100386.44;;;6.92;65.00
21706;BME280;11014;53.076;18.208;2023-01-19T09:08:52;100384.00;;;6.90;64.87
21706;BME280;11014;53.076;18.208;2023-01-19T09:11:21;100389.94;;;6.92;65.04
21706;BME280;11014;53.076;18.208;2023-01-19T09:13:49;100383.97;;;6.97;64.97
21706;BME280;11014;53.076;18.208;2023-01-19T09:16:18;100391.34;;;7.01;65.28
21706;BME280;11014;53.076;18.208;2023-01-19T09:18:47;100390.50;;;7.07;65.14
21706;BME280;11014;53.076;18.208;2023-01-19T09:21:16;100387.59;;;7.15;65.27
21706;BME280;11014;53.076;18.208;2023-01-19T09:23:45;100388.97;;;7.25;65.19
21706;BME280;11014;53.076;18.208;2023-01-19T09:26:14;100393.25;;;7.32;65.00
21706;BME280;11014;53.076;18.208;2023-01-19T09:28:43;100386.19;;;7.38;64.74
21706;BME280;11014;53.076;18.208;2023-01-19T09:31:12;100383.31;;;7.39;64.80
21706;BME280;11014;53.076;18.208;2023-01-19T09:33:42;100384.56;;;7.37;64.90
21706;BME280;11014;53.076;18.208;2023-01-19T09:36:11;100385.41;;;7.37;65.02
21706;BME280;11014;53.076;18.208;2023-01-19T09:38:39;100380.22;;;7.42;64.94
21706;BME280;11014;53.076;18.208;2023-01-19T09:41:15;100386.72;;;7.53;64.99
21706;BME280;11014;53.076;18.208;2023-01-19T09:43:53;100393.47;;;7.62;64.86
21706;BME280;11014;53.076;18.208;2023-01-19T09:46:34;100393.03;;;7.65;64.28
21706;BME280;11014;53.076;18.208;2023-01-19T09:49:35;100392.25;;;7.58;64.37
21706;BME280;11014;53.076;18.208;2023-01-19T09:52:10;100387.81;;;7.45;64.40
21706;BME280;11014;53.076;18.208;2023-01-19T09:54:53;100392.34;;;7.45;64.41
21706;BME280;11014;53.076;18.208;2023-01-19T09:57:24;100384.75;;;7.42;64.40
21706;BME280;11014;53.076;18.208;2023-01-19T09:59:54;100388.00;;;7.44;64.23
21706;BME280;11014;53.076;18.208;2023-01-19T10:02:31;100388.25;;;7.42;64.33
21706;BME280;11014;53.076;18.208;2023-01-19T10:05:20;100383.72;;;7.43;64.66
21706;BME280;11014;53.076;18.208;2023-01-19T10:10:56;100369.44;;;7.55;64.42
21706;BME280;11014;53.076;18.208;2023-01-19T10:13:46;100366.91;;;7.67;64.46
21706;BME280;11014;53.076;18.208;2023-01-19T10:17:36;100356.31;;;7.79;64.16
21706;BME280;11014;53.076;18.208;2023-01-19T10:20:15;100359.63;;;7.74;63.97
21706;BME280;11014;53.076;18.208;2023-01-19T10:22:57;100362.13;;;7.69;64.21
21706;BME280;11014;53.076;18.208;2023-01-19T10:25:38;100364.22;;;7.67;64.00
21706;BME280;11014;53.076;18.208;2023-01-19T10:28:36;100365.84;;;7.68;64.23
21706;BME280;11014;53.076;18.208;2023-01-19T10:31:08;100364.97;;;7.74;64.04
21706;BME280;11014;53.076;18.208;2023-01-19T10:33:39;100366.13;;;7.85;63.90
21706;BME280;11014;53.076;18.208;2023-01-19T10:36:42;100368.91;;;7.96;63.99
21706;BME280;11014;53.076;18.208;2023-01-19T10:39:30;100365.56;;;8.01;63.54
21706;BME280;11014;53.076;18.208;2023-01-19T10:42:04;100372.78;;;8.00;63.44
21706;BME280;11014;53.076;18.208;2023-01-19T10:45:23;100377.22;;;8.06;63.15
21706;BME280;11014;53.076;18.208;2023-01-19T10:48:35;100372.59;;;7.95;63.27
21706;BME280;11014;53.076;18.208;2023-01-19T10:51:26;100374.13;;;8.09;63.31
21706;BME280;11014;53.076;18.208;2023-01-19T10:54:11;100381.28;;;8.15;63.37
21706;BME280;11014;53.076;18.208;2023-01-19T10:57:01;100388.19;;;8.23;63.32
21706;BME280;11014;53.076;18.208;2023-01-19T11:02:28;100394.81;;;8.20;63.09
21706;BME280;11014;53.076;18.208;2023-01-19T11:05:30;100394.59;;;8.22;63.16
21706;BME280;11014;53.076;18.208;2023-01-19T11:07:59;100407.00;;;8.16;62.55
21706;BME280;11014;53.076;18.208;2023-01-19T11:10:31;100402.13;;;8.07;62.55
21706;BME280;11014;53.076;18.208;2023-01-19T11:13:18;100394.34;;;8.05;62.94
21706;BME280;11014;53.076;18.208;2023-01-19T11:15:55;100395.66;;;7.96;63.11
21706;BME280;11014;53.076;18.208;2023-01-19T11:18:35;100396.84;;;8.00;63.22
21706;BME280;11014;53.076;18.208;2023-01-19T11:21:13;100394.34;;;8.05;63.16
21706;BME280;11014;53.076;18.208;2023-01-19T11:24:03;100386.25;;;8.12;62.96
21706;BME280;11014;53.076;18.208;2023-01-19T11:26:41;100381.88;;;8.17;62.69
21706;BME280;11014;53.076;18.208;2023-01-19T11:29:20;100385.59;;;8.16;62.55
21706;BME280;11014;53.076;18.208;2023-01-19T11:31:53;100376.81;;;8.09;62.45
21706;BME280;11014;53.076;18.208;2023-01-19T11:34:34;100371.72;;;8.01;62.32
21706;BME280;11014;53.076;18.208;2023-01-19T11:39:51;100372.06;;;8.11;62.22
21706;BME280;11014;53.076;18.208;2023-01-19T11:43:03;100371.94;;;8.24;62.32
21706;BME280;11014;53.076;18.208;2023-01-19T11:45:47;100370.63;;;8.33;61.99
21706;BME280;11014;53.076;18.208;2023-01-19T11:52:29;100378.34;;;8.42;61.91
21706;BME280;11014;53.076;18.208;2023-01-19T11:58:05;100366.75;;;8.48;62.14
21706;BME280;11014;53.076;18.208;2023-01-19T12:01:24;100367.53;;;8.55;61.81
21706;BME280;11014;53.076;18.208;2023-01-19T12:04:24;100375.31;;;8.56;61.85
21706;BME280;11014;53.076;18.208;2023-01-19T12:07:21;100373.97;;;8.47;61.79
21706;BME280;11014;53.076;18.208;2023-01-19T12:09:55;100375.84;;;8.47;61.78
21706;BME280;11014;53.076;18.208;2023-01-19T12:12:33;100376.66;;;8.47;61.99
21706;BME280;11014;53.076;18.208;2023-01-19T12:15:41;100366.75;;;8.48;62.07
21706;BME280;11014;53.076;18.208;2023-01-19T12:18:06;100368.56;;;8.54;62.06
21706;BME280;11014;53.076;18.208;2023-01-19T12:20:46;100371.09;;;8.49;61.58
21706;BME280;11014;53.076;18.208;2023-01-19T12:23:45;100374.78;;;8.48;62.19
21706;BME280;11014;53.076;18.208;2023-01-19T12:26:30;100371.25;;;8.54;62.27
21706;BME280;11014;53.076;18.208;2023-01-19T12:29:08;100371.81;;;8.56;62.13
21706;BME280;11014;53.076;18.208;2023-01-19T12:31:39;100364.31;;;8.46;62.02
21706;BME280;11014;53.076;18.208;2023-01-19T12:34:48;100358.88;;;8.34;61.85
21706;BME280;11014;53.076;18.208;2023-01-19T12:40:17;100357.72;;;8.30;62.07
21706;BME280;11014;53.076;18.208;2023-01-19T12:43:00;100359.31;;;8.31;62.02
21706;BME280;11014;53.076;18.208;2023-01-19T12:45:33;100358.31;;;8.32;62.31
21706;BME280;11014;53.076;18.208;2023-01-19T12:48:03;100354.56;;;8.33;62.26
21706;BME280;11014;53.076;18.208;2023-01-19T12:50:35;100358.50;;;8.06;61.99
21706;BME280;11014;53.076;18.208;2023-01-19T12:53:17;100359.69;;;7.92;62.41
21706;BME280;11014;53.076;18.208;2023-01-19T12:55:57;100359.91;;;7.91;62.59
21706;BME280;11014;53.076;18.208;2023-01-19T12:58:28;100351.88;;;7.91;62.57
21706;BME280;11014;53.076;18.208;2023-01-19T13:01:15;100352.25;;;7.94;62.35
21706;BME280;11014;53.076;18.208;2023-01-19T13:07:10;100362.81;;;7.89;62.08
21706;BME280;11014;53.076;18.208;2023-01-19T13:13:36;100372.31;;;8.03;62.22
21706;BME280;11014;53.076;18.208;2023-01-19T13:21:54;100374.63;;;8.00;62.41
21706;BME280;11014;53.076;18.208;2023-01-19T13:24:23;100391.56;;;7.94;62.27
21706;BME280;11014;53.076;18.208;2023-01-19T13:27:13;100382.50;;;7.95;62.68
21706;BME280;11014;53.076;18.208;2023-01-19T13:29:44;100377.94;;;7.95;62.69
21706;BME280;11014;53.076;18.208;2023-01-19T13:32:16;100380.19;;;7.98;62.78
21706;BME280;11014;53.076;18.208;2023-01-19T13:34:57;100380.34;;;8.03;62.65
21706;BME280;11014;53.076;18.208;2023-01-19T13:37:40;100381.56;;;8.07;62.63
21706;BME280;11014;53.076;18.208;2023-01-19T13:40:35;100384.78;;;8.16;62.55
21706;BME280;11014;53.076;18.208;2023-01-19T13:43:26;100378.16;;;8.18;62.45
21706;BME280;11014;53.076;18.208;2023-01-19T13:46:09;100377.13;;;8.19;62.24
21706;BME280;11014;53.076;18.208;2023-01-19T13:48:57;100384.25;;;8.25;62.48
21706;BME280;11014;53.076;18.208;2023-01-19T13:51:27;100378.06;;;8.31;62.24
21706;BME280;11014;53.076;18.208;2023-01-19T13:53:58;100379.28;;;8.36;62.17
21706;BME280;11014;53.076;18.208;2023-01-19T13:56:29;100377.91;;;8.45;62.06
21706;BME280;11014;53.076;18.208;2023-01-19T13:59:05;100379.31;;;8.47;62.08
21706;BME280;11014;53.076;18.208;2023-01-19T14:01:40;100378.06;;;8.50;61.95
21706;BME280;11014;53.076;18.208;2023-01-19T14:07:19;100390.72;;;8.61;61.63
21706;BME280;11014;53.076;18.208;2023-01-19T14:10:04;100391.44;;;8.50;61.34
21706;BME280;11014;53.076;18.208;2023-01-19T14:12:34;100393.00;;;8.39;61.77
21706;BME280;11014;53.076;18.208;2023-01-19T14:15:21;100390.84;;;8.29;61.59
21706;BME280;11014;53.076;18.208;2023-01-19T14:18:10;100391.25;;;8.26;61.83
21706;BME280;11014;53.076;18.208;2023-01-19T14:20:40;100397.91;;;8.17;62.04
21706;BME280;11014;53.076;18.208;2023-01-19T14:23:36;100402.00;;;8.20;62.04
21706;BME280;11014;53.076;18.208;2023-01-19T14:27:25;100407.00;;;8.16;62.34
21706;BME280;11014;53.076;18.208;2023-01-19T14:31:02;100410.53;;;8.10;61.95
21706;BME280;11014;53.076;18.208;2023-01-19T14:34:30;100414.03;;;8.11;62.33
21706;BME280;11014;53.076;18.208;2023-01-19T14:37:50;100415.31;;;8.08;62.40
21706;BME280;11014;53.076;18.208;2023-01-19T14:40:41;100409.88;;;8.15;62.42
21706;BME280;11014;53.076;18.208;2023-01-19T14:44:32;100419.25;;;8.30;62.21